createdAt,value
2022-08-20T00:00:17.448Z,7.43
2022-08-20T00:02:51.923Z,7.45
2022-08-20T00:05:25.929Z,7.55
2022-08-20T00:07:52.814Z,6.88
2022-08-20T00:10:21.168Z,7.45
2022-08-20T00:12:49.377Z,7.88
2022-08-20T00:15:21.717Z,7.38
2022-08-20T00:17:52.155Z,6.85
2022-08-20T00:20:22.674Z,7.43
2022-08-20T00:22:49.563Z,7.05
2022-08-20T00:25:41.797Z,6.95
2022-08-20T00:28:09.342Z,7.05
2022-08-20T00:30:36.586Z,7.15
2022-08-20T00:33:07.403Z,6.80
2022-08-20T00:35:37.116Z,7.30
2022-08-20T00:38:04.987Z,6.85
2022-08-20T00:40:41.008Z,6.60
2022-08-20T00:43:29.984Z,6.50
2022-08-20T00:46:00.013Z,6.57
2022-08-20T00:48:32.067Z,6.68
2022-08-20T00:51:29.865Z,6.80
2022-08-20T00:54:03.017Z,7.15
2022-08-20T00:56:33.793Z,7.47
2022-08-20T00:59:01.728Z,7.22
2022-08-20T01:01:29.068Z,7.10
2022-08-20T01:03:56.660Z,7.25
2022-08-20T01:06:25.165Z,6.40
2022-08-20T01:08:53.633Z,6.18
2022-08-20T01:11:23.599Z,6.63
2022-08-20T01:13:51.174Z,6.38
2022-08-20T01:16:25.157Z,7.43
2022-08-20T01:18:57.578Z,6.43
2022-08-20T01:21:32.157Z,6.35
2022-08-20T01:24:15.114Z,6.40
2022-08-20T01:26:44.840Z,6.05
2022-08-20T01:29:26.431Z,6.85
2022-08-20T01:31:53.242Z,6.20
2022-08-20T01:34:20.881Z,6.65
2022-08-20T01:36:51.143Z,6.30
2022-08-20T01:39:25.060Z,5.68
2022-08-20T01:42:02.753Z,6.03
2022-08-20T01:44:30.645Z,5.25
2022-08-20T01:47:07.731Z,5.57
2022-08-20T01:49:35.539Z,5.15
2022-08-20T01:52:07.531Z,5.45
2022-08-20T01:54:35.384Z,5.45
2022-08-20T01:57:13.764Z,4.93
2022-08-20T01:59:41.011Z,4.85
2022-08-20T02:02:11.644Z,5.47
2022-08-20T02:04:38.886Z,4.50
2022-08-20T02:07:07.208Z,3.88
2022-08-20T02:09:39.960Z,4.30
2022-08-20T02:12:08.824Z,3.83
2022-08-20T02:14:40.168Z,4.00
2022-08-20T02:17:07.076Z,3.90
2022-08-20T02:19:39.073Z,3.75
2022-08-20T02:22:29.402Z,3.33
2022-08-20T02:24:56.589Z,3.90
2022-08-20T02:27:23.690Z,3.55
2022-08-20T02:29:51.985Z,3.22
2022-08-20T02:32:32.668Z,3.38
2022-08-20T02:35:03.863Z,3.55
2022-08-20T02:37:31.936Z,3.53
2022-08-20T02:39:59.357Z,3.63
2022-08-20T02:42:26.600Z,3.50
2022-08-20T02:44:54.479Z,3.42
2022-08-20T02:47:21.204Z,3.35
2022-08-20T02:49:47.934Z,3.17
2022-08-20T02:52:14.688Z,3.22
2022-08-20T02:54:41.424Z,3.42
2022-08-20T02:57:20.224Z,3.63
2022-08-20T02:59:52.010Z,3.35
2022-08-20T03:02:19.165Z,2.95
2022-08-20T03:04:45.869Z,3.20
2022-08-20T03:07:13.024Z,3.00
2022-08-20T03:09:40.349Z,3.03
2022-08-20T03:12:08.179Z,3.05
2022-08-20T03:14:35.970Z,3.30
2022-08-20T03:17:04.698Z,3.65
2022-08-20T03:19:31.520Z,3.15
2022-08-20T03:21:58.312Z,3.25
2022-08-20T03:24:25.013Z,3.20
2022-08-20T03:26:52.850Z,2.75
2022-08-20T03:29:19.652Z,2.90
2022-08-20T03:31:46.486Z,3.30
2022-08-20T03:34:13.268Z,3.30
2022-08-20T03:36:40.112Z,2.75
2022-08-20T03:39:11.712Z,3.30
2022-08-20T03:41:39.226Z,2.90
2022-08-20T03:44:06.898Z,3.03
2022-08-20T03:46:34.235Z,2.78
2022-08-20T03:49:03.393Z,2.80
2022-08-20T03:51:31.406Z,3.08
2022-08-20T03:53:58.788Z,2.85
2022-08-20T03:56:26.101Z,3.08
2022-08-20T03:58:53.050Z,3.03
2022-08-20T04:01:44.981Z,2.90
2022-08-20T04:04:06.634Z,3.22
2022-08-20T04:06:39.669Z,3.10
2022-08-20T04:09:07.366Z,3.30
2022-08-20T04:11:37.585Z,3.40
2022-08-20T04:14:04.819Z,2.95
2022-08-20T04:16:33.567Z,3.30
2022-08-20T04:19:02.315Z,2.88
2022-08-20T04:21:33.911Z,3.00
2022-08-20T04:24:02.781Z,3.20
2022-08-20T04:26:30.587Z,2.90
2022-08-20T04:28:57.947Z,3.25
2022-08-20T04:31:25.334Z,2.90
2022-08-20T04:33:52.762Z,2.88
2022-08-20T04:36:19.531Z,3.05
2022-08-20T04:38:48.510Z,3.20
2022-08-20T04:41:22.676Z,2.92
2022-08-20T04:43:50.724Z,2.78
2022-08-20T04:46:17.538Z,3.40
2022-08-20T04:48:49.062Z,2.85
2022-08-20T04:51:18.122Z,3.22
2022-08-20T04:53:52.036Z,3.00
2022-08-20T04:56:25.892Z,3.13
2022-08-20T04:58:54.870Z,2.72
2022-08-20T05:01:23.747Z,3.13
2022-08-20T05:03:53.591Z,3.80
2022-08-20T05:06:21.027Z,3.38
2022-08-20T05:08:47.856Z,3.20
2022-08-20T05:11:33.886Z,3.08
2022-08-20T05:14:02.165Z,3.25
2022-08-20T05:16:28.988Z,3.10
2022-08-20T05:18:55.706Z,3.03
2022-08-20T05:21:22.406Z,3.35
2022-08-20T05:23:49.297Z,3.00
2022-08-20T05:26:17.120Z,3.30
2022-08-20T05:28:58.605Z,2.92
2022-08-20T05:31:32.317Z,3.10
2022-08-20T05:34:10.299Z,3.05
2022-08-20T05:36:40.736Z,3.10
2022-08-20T05:39:11.141Z,2.92
2022-08-20T05:41:39.096Z,2.90
2022-08-20T05:44:13.414Z,2.67
2022-08-20T05:46:47.520Z,3.13
2022-08-20T05:49:17.404Z,2.70
2022-08-20T05:51:44.404Z,2.70
2022-08-20T05:54:12.603Z,2.97
2022-08-20T05:56:39.641Z,3.20
2022-08-20T05:59:09.018Z,2.63
2022-08-20T06:01:39.154Z,3.03
2022-08-20T06:06:53.645Z,2.60
2022-08-20T06:09:31.396Z,2.55
2022-08-20T06:12:04.151Z,2.72
2022-08-20T06:14:31.754Z,2.60
2022-08-20T06:17:15.923Z,2.70
2022-08-20T06:19:44.429Z,2.80
2022-08-20T06:22:20.516Z,2.75
2022-08-20T06:24:52.046Z,2.60
2022-08-20T06:27:18.925Z,2.47
2022-08-20T06:29:45.811Z,2.33
2022-08-20T06:32:13.439Z,3.08
2022-08-20T06:34:49.022Z,2.58
2022-08-20T06:37:30.917Z,2.53
2022-08-20T06:40:14.268Z,2.60
2022-08-20T06:42:47.895Z,2.40
2022-08-20T06:45:20.009Z,2.42
2022-08-20T06:47:47.433Z,2.42
2022-08-20T06:50:17.893Z,2.42
2022-08-20T06:52:53.077Z,2.50
2022-08-20T06:55:20.581Z,2.30
2022-08-20T06:57:48.358Z,1.80
2022-08-20T07:00:18.546Z,2.38
2022-08-20T07:05:14.465Z,2.60
2022-08-20T07:07:46.069Z,2.42
2022-08-20T07:10:14.527Z,2.00
2022-08-20T07:12:41.405Z,1.85
2022-08-20T07:15:10.329Z,1.90
2022-08-20T07:17:37.866Z,1.83
2022-08-20T07:20:13.288Z,2.05
2022-08-20T07:22:40.971Z,1.98
2022-08-20T07:25:11.205Z,1.90
2022-08-20T07:30:25.485Z,1.73
2022-08-20T07:32:52.325Z,2.38
2022-08-20T07:35:21.161Z,2.40
2022-08-20T07:37:51.770Z,1.98
2022-08-20T07:40:28.436Z,2.03
2022-08-20T07:43:00.832Z,2.33
2022-08-20T07:45:28.499Z,2.13
2022-08-20T07:47:55.998Z,1.92
2022-08-20T07:50:25.322Z,2.38
2022-08-20T07:52:53.179Z,2.53
2022-08-20T07:55:21.212Z,2.38
2022-08-20T07:57:50.115Z,2.08
2022-08-20T08:00:19.047Z,1.70
2022-08-20T08:02:49.037Z,2.08
2022-08-20T08:05:18.325Z,1.70
2022-08-20T08:07:46.371Z,1.83
2022-08-20T08:10:18.676Z,1.60
2022-08-20T08:12:50.605Z,2.17
2022-08-20T08:15:22.464Z,1.92
2022-08-20T08:17:52.654Z,1.75
2022-08-20T08:20:20.413Z,1.92
2022-08-20T08:22:47.559Z,1.92
2022-08-20T08:25:17.028Z,2.10
2022-08-20T08:27:49.002Z,1.90
2022-08-20T08:30:16.716Z,1.83
2022-08-20T08:33:03.400Z,2.05
2022-08-20T08:35:32.570Z,1.85
2022-08-20T08:38:02.397Z,2.13
2022-08-20T08:40:31.917Z,1.65
2022-08-20T08:43:02.982Z,2.72
2022-08-20T08:45:38.306Z,2.08
2022-08-20T08:48:05.362Z,1.98
2022-08-20T08:50:53.157Z,2.00
2022-08-20T08:53:27.862Z,2.08
2022-08-20T08:55:54.686Z,1.88
2022-08-20T08:58:21.466Z,1.88
2022-08-20T09:00:57.349Z,2.10
2022-08-20T09:03:31.740Z,1.80
2022-08-20T09:06:00.827Z,1.70
2022-08-20T09:08:33.095Z,1.77
2022-08-20T09:11:08.193Z,1.77
2022-08-20T09:13:35.277Z,1.73
2022-08-20T09:16:03.392Z,1.70
2022-08-20T09:18:30.206Z,1.70
2022-08-20T09:20:59.008Z,1.88
2022-08-20T09:23:36.575Z,1.35
2022-08-20T09:26:03.347Z,1.50
2022-08-20T09:28:34.865Z,1.88
2022-08-20T09:31:04.780Z,1.95
2022-08-20T09:33:34.464Z,1.40
2022-08-20T09:36:01.211Z,1.80
2022-08-20T09:38:28.167Z,1.70
2022-08-20T09:40:55.038Z,1.67
2022-08-20T09:43:22.848Z,1.95
2022-08-20T09:45:49.564Z,2.10
2022-08-20T09:48:18.470Z,2.15
2022-08-20T09:50:48.318Z,1.70
2022-08-20T09:53:16.045Z,2.40
2022-08-20T09:55:46.833Z,1.40
2022-08-20T09:58:40.292Z,1.63
2022-08-20T10:01:15.104Z,1.55
2022-08-20T10:03:43.031Z,1.80
2022-08-20T10:06:11.322Z,2.47
2022-08-20T10:08:38.705Z,2.08
2022-08-20T10:11:05.789Z,1.65
2022-08-20T10:13:33.041Z,1.88
2022-08-20T10:15:59.887Z,1.80
2022-08-20T10:18:26.765Z,1.70
2022-08-20T10:20:53.555Z,2.08
2022-08-20T10:23:20.263Z,1.73
2022-08-20T10:25:47.202Z,2.00
2022-08-20T10:28:13.988Z,2.10
2022-08-20T10:30:41.041Z,2.08
2022-08-20T10:33:07.830Z,2.10
2022-08-20T10:35:34.545Z,2.33
2022-08-20T10:38:01.241Z,1.90
2022-08-20T10:40:28.338Z,2.05
2022-08-20T10:42:55.212Z,2.03
2022-08-20T10:45:21.963Z,1.98
2022-08-20T10:47:48.803Z,1.60
2022-08-20T10:50:16.687Z,2.00
2022-08-20T10:52:44.712Z,2.15
2022-08-20T10:55:13.002Z,1.70
2022-08-20T10:57:41.402Z,1.98
2022-08-20T11:00:10.360Z,2.10
2022-08-20T11:02:37.216Z,2.00
2022-08-20T11:05:06.577Z,1.63
2022-08-20T11:07:55.019Z,1.90
2022-08-20T11:10:25.501Z,2.10
2022-08-20T11:12:56.986Z,2.05
2022-08-20T11:15:23.903Z,2.03
2022-08-20T11:17:50.998Z,2.28
2022-08-20T11:20:20.182Z,2.10
2022-08-20T11:22:47.670Z,2.22
2022-08-20T11:25:15.144Z,2.10
2022-08-20T11:27:45.119Z,3.30
2022-08-20T11:30:15.282Z,1.77
2022-08-20T11:32:42.224Z,2.08
2022-08-20T11:38:03.666Z,2.20
2022-08-20T11:40:31.628Z,2.28
2022-08-20T11:43:15.578Z,1.92
2022-08-20T11:45:46.305Z,2.97
2022-08-20T11:48:13.512Z,2.75
2022-08-20T11:50:40.425Z,2.28
2022-08-20T11:53:07.909Z,2.47
2022-08-20T11:55:35.780Z,1.88
2022-08-20T11:58:02.826Z,1.98
2022-08-20T12:00:32.961Z,1.92
2022-08-20T12:03:02.023Z,2.30
2022-08-20T12:05:34.865Z,2.42
2022-08-20T12:08:02.246Z,1.80
2022-08-20T12:10:30.344Z,1.80
2022-08-20T12:12:57.491Z,1.98
2022-08-20T12:15:26.682Z,1.98
2022-08-20T12:17:55.101Z,2.45
2022-08-20T12:20:22.792Z,2.20
2022-08-20T12:22:49.563Z,2.42
2022-08-20T12:25:16.438Z,2.45
2022-08-20T12:27:43.193Z,2.00
2022-08-20T12:30:13.264Z,1.92
2022-08-20T12:35:09.159Z,1.83
2022-08-20T12:37:36.391Z,2.30
2022-08-20T12:40:06.721Z,2.15
2022-08-20T12:42:33.625Z,1.92
2022-08-20T12:45:01.578Z,2.75
2022-08-20T12:47:34.069Z,2.45
2022-08-20T12:50:13.091Z,2.88
2022-08-20T12:52:40.670Z,2.40
2022-08-20T12:55:12.284Z,2.17
2022-08-20T12:57:56.484Z,2.10
2022-08-20T13:00:30.823Z,2.63
2022-08-20T13:03:01.125Z,2.47
2022-08-20T13:05:28.248Z,2.40
2022-08-20T13:07:55.483Z,2.00
2022-08-20T13:10:26.030Z,2.42
2022-08-20T13:12:53.095Z,2.55
2022-08-20T13:15:21.030Z,2.42
2022-08-20T13:17:56.309Z,1.98
2022-08-20T13:20:25.707Z,2.67
2022-08-20T13:22:58.373Z,2.70
2022-08-20T13:25:26.018Z,2.50
2022-08-20T13:28:00.386Z,2.60
2022-08-20T13:30:27.471Z,2.30
2022-08-20T13:32:54.476Z,2.95
2022-08-20T13:35:21.728Z,2.25
2022-08-20T13:37:49.687Z,2.67
2022-08-20T13:40:17.284Z,2.33
2022-08-20T13:42:44.062Z,2.78
2022-08-20T13:45:13.101Z,2.35
2022-08-20T13:47:41.670Z,2.53
2022-08-20T13:50:15.317Z,2.85
2022-08-20T13:52:45.995Z,2.10
2022-08-20T13:55:16.131Z,2.10
2022-08-20T13:57:45.554Z,2.17
2022-08-20T14:00:31.214Z,2.27
2022-08-20T14:03:00.403Z,2.50
2022-08-20T14:05:27.537Z,1.92
2022-08-20T14:07:54.668Z,2.28
2022-08-20T14:10:26.347Z,2.20
2022-08-20T14:12:53.199Z,2.22
2022-08-20T14:15:20.218Z,2.40
2022-08-20T14:17:53.655Z,1.98
2022-08-20T14:20:24.364Z,1.60
2022-08-20T14:22:52.110Z,1.83
2022-08-20T14:25:20.618Z,2.38
2022-08-20T14:27:47.460Z,1.95
2022-08-20T14:30:18.543Z,1.95
2022-08-20T14:32:45.679Z,2.30
2022-08-20T14:35:14.162Z,2.95
2022-08-20T14:37:43.804Z,2.00
2022-08-20T14:40:14.073Z,2.10
2022-08-20T14:42:43.329Z,2.20
2022-08-20T14:45:14.596Z,2.10
2022-08-20T14:47:45.605Z,2.85
2022-08-20T14:50:20.047Z,2.28
2022-08-20T14:52:47.025Z,2.40
2022-08-20T14:55:16.988Z,3.05
2022-08-20T14:57:44.672Z,2.65
2022-08-20T15:00:20.561Z,2.03
2022-08-20T15:02:47.681Z,2.25
2022-08-20T15:05:15.297Z,2.05
2022-08-20T15:10:20.281Z,2.05
2022-08-20T15:12:47.187Z,1.75
2022-08-20T15:15:16.167Z,2.05
2022-08-20T15:17:46.434Z,1.80
2022-08-20T15:22:48.616Z,2.10
2022-08-20T15:25:18.980Z,2.45
2022-08-20T15:27:46.178Z,2.00
2022-08-20T15:30:19.053Z,1.90
2022-08-20T15:32:46.160Z,1.77
2022-08-20T15:35:13.382Z,1.70
2022-08-20T15:37:43.906Z,1.70
2022-08-20T15:40:13.369Z,1.90
2022-08-20T15:42:43.416Z,1.77
2022-08-20T15:45:14.275Z,2.50
2022-08-20T15:47:59.937Z,1.70
2022-08-20T15:50:50.083Z,1.67
2022-08-20T15:56:03.368Z,2.10
2022-08-20T15:58:52.656Z,1.83
2022-08-20T16:01:36.671Z,2.00
2022-08-20T16:04:28.341Z,2.20
2022-08-20T16:07:01.414Z,2.40
2022-08-20T16:10:15.659Z,1.67
2022-08-20T16:12:47.060Z,2.20
2022-08-20T16:15:22.186Z,2.70
2022-08-20T16:18:13.078Z,2.03
2022-08-20T16:20:47.975Z,1.98
2022-08-20T16:23:21.816Z,1.65
2022-08-20T16:26:10.015Z,2.63
2022-08-20T16:28:49.085Z,2.00
2022-08-20T16:31:22.172Z,1.80
2022-08-20T16:34:28.170Z,1.90
2022-08-20T16:37:11.643Z,1.90
2022-08-20T16:39:51.371Z,1.83
2022-08-20T16:44:50.765Z,2.28
2022-08-20T16:47:30.609Z,1.85
2022-08-20T16:50:03.261Z,2.53
2022-08-20T16:52:30.480Z,1.70
2022-08-20T16:54:57.665Z,2.05
2022-08-20T16:57:27.641Z,2.10
2022-08-20T17:00:14.929Z,2.00
2022-08-20T17:03:03.993Z,1.98
2022-08-20T17:05:42.889Z,1.92
2022-08-20T17:08:17.695Z,2.03
2022-08-20T17:11:08.953Z,2.20
2022-08-20T17:13:38.785Z,2.28
2022-08-20T17:16:19.554Z,2.00
2022-08-20T17:18:49.238Z,2.10
2022-08-20T17:21:26.233Z,2.03
2022-08-20T17:24:02.147Z,1.85
2022-08-20T17:26:40.685Z,1.90
2022-08-20T17:29:23.905Z,1.98
2022-08-20T17:31:53.525Z,1.50
2022-08-20T17:34:27.770Z,1.50
2022-08-20T17:37:09.561Z,1.75
2022-08-20T17:39:46.181Z,1.60
2022-08-20T17:42:21.475Z,2.28
2022-08-20T17:44:58.348Z,1.70
2022-08-20T17:47:34.385Z,1.90
2022-08-20T17:50:31.642Z,1.88
2022-08-20T17:53:23.337Z,1.70
2022-08-20T17:55:54.522Z,2.10
2022-08-20T17:58:29.337Z,1.95
2022-08-20T18:00:56.077Z,1.90
2022-08-20T18:03:26.365Z,1.98
2022-08-20T18:06:07.105Z,1.48
2022-08-20T18:08:53.392Z,1.77
2022-08-20T18:11:54.502Z,2.03
2022-08-20T18:14:45.608Z,2.08
2022-08-20T18:17:45.076Z,2.17
2022-08-20T18:20:32.106Z,2.30
2022-08-20T18:23:06.804Z,2.30
2022-08-20T18:25:41.419Z,2.40
2022-08-20T18:28:38.576Z,2.45
2022-08-20T18:31:09.023Z,1.90
2022-08-20T18:33:42.910Z,2.00
2022-08-20T18:36:22.801Z,1.80
2022-08-20T18:39:00.539Z,1.63
2022-08-20T18:41:41.716Z,1.67
2022-08-20T18:44:13.368Z,1.90
2022-08-20T18:49:36.688Z,1.52
2022-08-20T18:52:23.750Z,1.77
2022-08-20T18:54:54.074Z,2.00
2022-08-20T18:57:30.523Z,1.58
2022-08-20T19:00:18.569Z,1.67
2022-08-20T19:03:12.910Z,1.65
2022-08-20T19:05:45.719Z,2.35
2022-08-20T19:08:20.651Z,1.80
2022-08-20T19:11:03.307Z,1.50
2022-08-20T19:13:52.056Z,1.67
2022-08-20T19:16:33.588Z,1.88
2022-08-20T19:19:00.771Z,1.80
2022-08-20T19:21:37.534Z,1.70
2022-08-20T19:24:07.513Z,1.50
2022-08-20T19:26:41.885Z,1.67
2022-08-20T19:29:17.242Z,2.05
2022-08-20T19:31:44.613Z,1.67
2022-08-20T19:34:22.245Z,2.20
2022-08-20T19:37:35.023Z,1.75
2022-08-20T19:40:29.870Z,1.70
2022-08-20T19:42:59.548Z,1.50
2022-08-20T19:45:30.722Z,1.52
2022-08-20T19:48:27.277Z,1.83
2022-08-20T19:50:59.980Z,1.35
2022-08-20T19:53:32.550Z,1.40
2022-08-20T19:56:19.194Z,1.60
2022-08-20T19:58:58.879Z,2.03
2022-08-20T20:01:25.686Z,1.80
2022-08-20T20:04:07.667Z,1.50
2022-08-20T20:06:41.551Z,1.75
2022-08-20T20:09:17.645Z,1.40
2022-08-20T20:11:56.933Z,1.58
2022-08-20T20:14:37.164Z,2.00
2022-08-20T20:17:09.343Z,2.22
2022-08-20T20:19:45.623Z,1.63
2022-08-20T20:22:23.878Z,2.00
2022-08-20T20:25:07.713Z,2.13
2022-08-20T20:27:36.471Z,2.10
2022-08-20T20:30:11.204Z,2.15
2022-08-20T20:32:48.700Z,1.90
2022-08-20T20:35:33.960Z,2.20
2022-08-20T20:38:11.375Z,2.20
2022-08-20T20:40:53.475Z,2.03
2022-08-20T20:43:38.501Z,2.20
2022-08-20T20:46:17.941Z,2.10
2022-08-20T20:48:48.774Z,1.90
2022-08-20T20:51:32.623Z,1.98
2022-08-20T20:54:06.707Z,1.90
2022-08-20T20:56:35.183Z,2.13
2022-08-20T20:59:06.624Z,1.90
2022-08-20T21:01:48.766Z,2.25
2022-08-20T21:04:21.625Z,1.83
2022-08-20T21:06:49.172Z,2.20
2022-08-20T21:09:16.745Z,2.35
2022-08-20T21:11:43.547Z,2.22
2022-08-20T21:14:10.405Z,2.05
2022-08-20T21:16:37.218Z,2.20
2022-08-20T21:19:07.580Z,2.20
2022-08-20T21:21:36.104Z,2.20
2022-08-20T21:24:03.357Z,2.10
2022-08-20T21:26:30.493Z,2.50
2022-08-20T21:28:57.593Z,2.05
2022-08-20T21:31:33.896Z,2.17
2022-08-20T21:34:01.187Z,2.90
2022-08-20T21:36:28.250Z,2.15
2022-08-20T21:38:54.988Z,2.30
2022-08-20T21:41:29.603Z,2.40
2022-08-20T21:43:58.593Z,2.17
2022-08-20T21:46:25.957Z,2.30
2022-08-20T21:48:52.636Z,2.70
2022-08-20T21:51:19.374Z,3.25
2022-08-20T21:53:46.113Z,3.03
2022-08-20T21:56:12.961Z,2.47
2022-08-20T21:58:40.183Z,2.70
2022-08-20T22:01:07.766Z,2.40
2022-08-20T22:03:38.812Z,2.60
2022-08-20T22:06:10.917Z,2.25
2022-08-20T22:08:37.915Z,2.40
2022-08-20T22:11:07.458Z,2.80
2022-08-20T22:13:34.311Z,2.60
2022-08-20T22:16:04.363Z,2.92
2022-08-20T22:18:31.334Z,2.70
2022-08-20T22:20:58.750Z,2.67
2022-08-20T22:23:26.923Z,2.42
2022-08-20T22:25:53.969Z,2.63
2022-08-20T22:28:20.855Z,2.80
2022-08-20T22:30:47.639Z,2.80
2022-08-20T22:33:20.786Z,2.83
2022-08-20T22:35:51.103Z,2.90
2022-08-20T22:38:18.176Z,2.45
2022-08-20T22:40:45.523Z,2.50
2022-08-20T22:43:13.593Z,2.83
2022-08-20T22:45:43.316Z,2.50
2022-08-20T22:48:13.692Z,2.60
2022-08-20T22:50:40.447Z,2.42
2022-08-20T22:53:08.502Z,2.42
2022-08-20T22:55:36.985Z,2.55
2022-08-20T22:58:05.189Z,2.10
2022-08-20T23:00:33.207Z,2.53
2022-08-20T23:03:01.247Z,2.20
2022-08-20T23:05:31.520Z,2.38
2022-08-20T23:10:29.590Z,2.13
2022-08-20T23:12:57.435Z,2.30
2022-08-20T23:15:26.045Z,2.20
2022-08-20T23:18:01.002Z,2.58
2022-08-20T23:20:27.785Z,2.13
2022-08-20T23:22:54.828Z,2.00
2022-08-20T23:25:21.740Z,2.47
2022-08-20T23:27:52.511Z,2.17
2022-08-20T23:30:20.281Z,2.67
2022-08-20T23:32:47.115Z,2.33
2022-08-20T23:35:14.206Z,2.22
2022-08-20T23:37:47.238Z,2.35
2022-08-20T23:40:16.316Z,2.30
2022-08-20T23:42:43.112Z,2.58
2022-08-20T23:45:10.337Z,2.40
2022-08-20T23:47:37.393Z,2.50
2022-08-20T23:50:09.014Z,2.20
2022-08-20T23:52:35.877Z,2.47
2022-08-20T23:55:03.103Z,2.50
2022-08-20T23:57:30.058Z,2.30
2022-08-20T23:59:57.024Z,2.40
